createdAt,value
2022-11-05T00:02:41.855Z,101385.38
2022-11-05T00:05:30.763Z,101395.25
2022-11-05T00:08:21.457Z,101389.81
2022-11-05T00:10:51.222Z,101394.63
2022-11-05T00:13:38.413Z,101395.88
2022-11-05T00:16:36.423Z,101397.31
2022-11-05T00:19:10.375Z,101358.44
2022-11-05T00:21:58.099Z,101394.19
2022-11-05T00:24:44.607Z,101400.28
2022-11-05T00:27:14.229Z,101389.63
2022-11-05T00:29:43.252Z,101389.63
2022-11-05T00:32:11.977Z,101399.34
2022-11-05T00:34:42.464Z,101388.50
2022-11-05T00:37:11.363Z,101410.75
2022-11-05T00:39:40.456Z,101413.28
2022-11-05T00:42:27.447Z,101409.88
2022-11-05T00:45:05.058Z,101421.06
2022-11-05T00:54:16.898Z,101421.13
2022-11-05T00:56:47.482Z,101424.63
2022-11-05T00:59:16.318Z,101416.97
2022-11-05T01:01:45.683Z,101430.66
2022-11-05T01:04:15.511Z,101423.06
2022-11-05T01:06:44.218Z,101417.97
2022-11-05T01:09:13.391Z,101434.34
2022-11-05T01:11:47.122Z,101430.94
2022-11-05T01:14:17.052Z,101431.09
2022-11-05T01:16:49.141Z,101451.22
2022-11-05T01:19:18.222Z,101448.91
2022-11-05T01:21:46.887Z,101455.69
2022-11-05T01:24:15.942Z,101413.41
2022-11-05T01:26:46.340Z,101442.19
2022-11-05T01:29:15.323Z,101453.91
2022-11-05T01:31:44.196Z,101455.59
2022-11-05T01:34:13.885Z,101438.41
2022-11-05T01:36:45.001Z,101452.13
2022-11-05T01:39:14.187Z,101444.28
2022-11-05T01:41:46.440Z,101459.84
2022-11-05T01:44:52.470Z,101431.59
2022-11-05T01:47:29.092Z,101438.59
2022-11-05T01:50:01.540Z,101436.78
2022-11-05T01:52:34.793Z,101435.16
2022-11-05T01:55:04.170Z,101426.53
2022-11-05T01:57:36.586Z,101420.28
2022-11-05T02:00:06.862Z,101416.53
2022-11-05T02:02:42.017Z,101429.13
2022-11-05T02:05:14.290Z,101416.88
2022-11-05T02:07:46.529Z,101413.16
2022-11-05T02:10:18.155Z,101415.00
2022-11-05T02:12:49.368Z,101406.63
2022-11-05T02:15:25.421Z,101415.53
2022-11-05T02:18:04.412Z,101416.44
2022-11-05T02:20:52.048Z,101419.09
2022-11-05T02:34:54.722Z,101437.84
2022-11-05T02:37:44.220Z,101432.84
2022-11-05T03:12:32.191Z,101440.59
2022-11-05T03:15:11.659Z,101424.22
2022-11-05T03:17:53.835Z,101421.53
2022-11-05T03:20:31.566Z,101412.78
2022-11-05T03:23:28.302Z,101418.81
2022-11-05T03:26:03.142Z,101421.34
2022-11-05T03:28:36.089Z,101416.69
2022-11-05T03:31:40.419Z,101419.50
2022-11-05T03:34:31.664Z,101424.88
2022-11-05T03:37:04.461Z,101418.91
2022-11-05T03:39:37.337Z,101434.00
2022-11-05T03:56:19.552Z,101423.44
2022-11-05T03:58:50.628Z,101424.63
2022-11-05T04:11:12.092Z,101436.28
2022-11-05T04:18:39.894Z,101436.03
2022-11-05T04:24:49.469Z,101434.06
2022-11-05T04:28:22.939Z,101440.06
2022-11-05T04:31:07.010Z,101447.03
2022-11-05T04:40:10.980Z,101445.66
2022-11-05T04:42:40.613Z,101444.78
2022-11-05T04:45:09.679Z,101442.28
2022-11-05T04:47:38.569Z,101445.34
2022-11-05T04:50:08.999Z,101421.13
2022-11-05T04:52:39.246Z,101443.84
2022-11-05T04:55:09.162Z,101441.50
2022-11-05T04:57:38.845Z,101449.00
2022-11-05T05:00:10.004Z,101448.09
2022-11-05T05:02:39.746Z,101437.19
2022-11-05T05:05:09.331Z,101444.59
2022-11-05T05:07:39.809Z,101449.94
2022-11-05T05:10:10.692Z,101445.25
2022-11-05T05:12:39.542Z,101449.88
2022-11-05T05:15:09.264Z,101448.25
2022-11-05T05:17:38.162Z,101451.06
2022-11-05T05:20:25.682Z,101454.19
2022-11-05T05:22:56.747Z,101402.50
2022-11-05T05:25:26.849Z,101458.78
2022-11-05T05:27:57.851Z,101452.56
2022-11-05T05:30:27.015Z,101452.53
2022-11-05T05:32:55.977Z,101462.25
2022-11-05T05:35:25.572Z,101455.41
2022-11-05T05:38:05.665Z,101457.66
2022-11-05T05:40:35.349Z,101455.06
2022-11-05T05:43:04.586Z,101451.41
2022-11-05T05:46:03.541Z,101451.56
2022-11-05T05:48:32.620Z,101460.41
2022-11-05T05:51:02.855Z,101463.97
2022-11-05T05:53:35.673Z,101450.78
2022-11-05T05:56:05.973Z,101463.34
2022-11-05T05:58:39.197Z,101462.53
2022-11-05T06:01:14.259Z,101428.41
2022-11-05T06:03:47.334Z,101471.28
2022-11-05T06:06:20.985Z,101475.28
2022-11-05T06:08:53.911Z,101462.59
2022-11-05T06:11:23.624Z,101467.50
2022-11-05T06:13:52.924Z,101478.44
2022-11-05T06:16:24.938Z,101477.88
2022-11-05T06:18:53.606Z,101489.56
2022-11-05T06:21:27.357Z,101489.66
2022-11-05T06:23:57.358Z,101455.31
2022-11-05T06:26:26.344Z,101461.25
2022-11-05T06:28:55.534Z,101479.78
2022-11-05T06:31:24.871Z,101489.41
2022-11-05T06:33:56.079Z,101489.38
2022-11-05T06:36:25.516Z,101496.00
2022-11-05T06:38:58.916Z,101488.88
2022-11-05T06:41:27.848Z,101495.66
2022-11-05T06:43:56.578Z,101487.44
2022-11-05T06:46:25.234Z,101492.78
2022-11-05T06:48:54.030Z,101487.78
2022-11-05T06:51:24.711Z,101493.22
2022-11-05T06:53:53.762Z,101496.59
2022-11-05T06:56:24.038Z,101496.34
2022-11-05T06:58:52.699Z,101439.44
2022-11-05T07:01:21.741Z,101490.88
2022-11-05T07:03:50.475Z,101499.16
2022-11-05T07:06:19.595Z,101500.84
2022-11-05T07:08:48.313Z,101498.28
2022-11-05T07:11:23.722Z,101502.91
2022-11-05T07:13:53.508Z,101506.22
2022-11-05T07:16:25.216Z,101502.38
2022-11-05T07:18:55.865Z,101517.84
2022-11-05T07:21:27.108Z,101506.84
2022-11-05T07:23:56.255Z,101516.31
2022-11-05T07:26:31.899Z,101509.78
2022-11-05T07:29:03.308Z,101503.84
2022-11-05T07:31:34.656Z,101503.00
2022-11-05T07:34:03.973Z,101503.13
2022-11-05T07:36:32.690Z,101498.75
2022-11-05T07:39:01.545Z,101507.34
2022-11-05T07:41:32.074Z,101509.97
2022-11-05T07:44:04.447Z,101522.03
2022-11-05T07:46:33.240Z,101510.97
2022-11-05T07:49:05.035Z,101518.56
2022-11-05T07:51:33.755Z,101516.41
2022-11-05T07:54:12.740Z,101517.47
2022-11-05T07:56:43.390Z,101512.97
2022-11-05T07:59:13.453Z,101506.69
2022-11-05T08:01:42.635Z,101512.09
2022-11-05T08:04:11.517Z,101515.53
2022-11-05T08:06:40.235Z,101515.25
2022-11-05T08:09:10.580Z,101501.25
2022-11-05T08:11:40.098Z,101515.28
2022-11-05T08:14:11.020Z,101513.13
2022-11-05T08:16:39.879Z,101515.75
2022-11-05T08:19:08.558Z,101512.50
2022-11-05T08:21:38.211Z,101489.16
2022-11-05T08:24:08.355Z,101517.75
2022-11-05T08:26:37.145Z,101517.78
2022-11-05T08:29:05.769Z,101519.59
2022-11-05T08:31:37.218Z,101512.81
2022-11-05T08:34:06.573Z,101520.25
2022-11-05T08:36:36.076Z,101519.94
2022-11-05T08:39:05.618Z,101516.31
2022-11-05T08:41:34.539Z,101518.00
2022-11-05T08:44:03.580Z,101512.16
2022-11-05T08:46:33.173Z,101517.13
2022-11-05T08:49:06.020Z,101525.78
2022-11-05T08:51:35.554Z,101527.13
2022-11-05T08:54:07.238Z,101530.09
2022-11-05T08:56:36.035Z,101535.56
2022-11-05T08:59:04.946Z,101519.03
2022-11-05T09:01:34.967Z,101540.97
2022-11-05T09:04:06.183Z,101535.88
2022-11-05T09:06:39.000Z,101526.50
2022-11-05T09:09:08.581Z,101534.09
2022-11-05T09:12:10.023Z,101529.41
2022-11-05T09:14:27.641Z,101529.19
2022-11-05T09:16:56.314Z,101529.19
2022-11-05T09:19:26.537Z,101528.50
2022-11-05T09:21:55.240Z,101526.59
2022-11-05T09:24:52.875Z,101536.81
2022-11-05T09:27:24.345Z,101534.66
2022-11-05T09:29:53.232Z,101530.44
2022-11-05T09:32:23.491Z,101525.38
2022-11-05T09:34:53.589Z,101530.19
2022-11-05T09:37:23.042Z,101525.03
2022-11-05T09:39:52.192Z,101520.56
2022-11-05T09:42:24.131Z,101526.94
2022-11-05T09:44:56.070Z,101520.34
2022-11-05T09:47:28.982Z,101529.28
2022-11-05T09:50:04.205Z,101424.13
2022-11-05T09:52:35.761Z,101523.50
2022-11-05T09:55:15.738Z,101539.91
2022-11-05T09:57:50.290Z,101535.59
2022-11-05T10:00:20.089Z,101552.41
2022-11-05T10:02:53.247Z,101525.78
2022-11-05T10:05:25.574Z,101524.31
2022-11-05T10:07:59.556Z,101536.78
2022-11-05T10:10:40.784Z,101538.41
2022-11-05T10:13:23.101Z,101540.28
2022-11-05T10:16:01.866Z,101535.44
2022-11-05T10:18:35.774Z,101425.47
2022-11-05T10:21:17.536Z,101539.31
2022-11-05T10:23:48.386Z,101526.69
2022-11-05T10:26:21.611Z,101495.56
2022-11-05T10:28:52.078Z,101509.59
2022-11-05T10:31:23.057Z,101535.97
2022-11-05T10:33:54.683Z,101532.47
2022-11-05T10:36:29.282Z,101530.53
2022-11-05T10:39:02.954Z,101533.44
2022-11-05T10:41:43.542Z,101535.94
2022-11-05T10:44:32.691Z,101533.38
2022-11-05T10:47:17.431Z,101521.81
2022-11-05T10:49:58.468Z,101540.00
2022-11-05T10:52:35.352Z,101505.84
2022-11-05T10:55:16.121Z,101522.00
2022-11-05T10:57:48.580Z,101533.53
2022-11-05T11:00:28.471Z,101541.44
2022-11-05T11:03:01.300Z,101539.03
2022-11-05T11:05:32.867Z,101536.16
2022-11-05T11:08:07.819Z,101521.50
2022-11-05T11:10:43.470Z,101539.03
2022-11-05T11:13:21.378Z,101540.03
2022-11-05T11:15:51.837Z,101529.16
2022-11-05T11:18:32.451Z,101550.44
2022-11-05T11:21:14.965Z,101548.19
2022-11-05T11:23:55.485Z,101544.91
2022-11-05T11:26:32.206Z,101527.81
2022-11-05T11:29:08.302Z,101524.56
2022-11-05T11:31:40.223Z,101532.06
2022-11-05T11:34:18.136Z,101513.16
2022-11-05T11:36:51.508Z,101531.44
2022-11-05T11:39:26.157Z,101514.41
2022-11-05T11:41:57.228Z,101535.47
2022-11-05T11:44:31.790Z,101533.06
2022-11-05T11:47:09.751Z,101530.19
2022-11-05T11:49:50.325Z,101528.97
2022-11-05T11:56:48.492Z,101525.50
2022-11-05T11:59:53.907Z,101527.16
2022-11-05T12:02:42.961Z,101518.88
2022-11-05T12:05:23.552Z,101532.72
2022-11-05T12:07:55.625Z,101519.63
2022-11-05T12:10:39.357Z,101523.16
2022-11-05T12:13:47.907Z,101512.25
2022-11-05T12:16:27.551Z,101503.03
2022-11-05T12:19:11.958Z,101518.03
2022-11-05T12:21:53.112Z,101512.88
2022-11-05T12:24:37.603Z,101508.69
2022-11-05T12:27:19.134Z,101508.34
2022-11-05T12:30:03.627Z,101505.75
2022-11-05T12:32:54.711Z,101506.13
2022-11-05T12:35:49.906Z,101496.00
2022-11-05T12:38:58.467Z,101503.13
2022-11-05T12:42:00.366Z,101405.91
2022-11-05T12:45:10.713Z,101488.16
2022-11-05T12:47:50.731Z,101495.50
2022-11-05T12:50:26.190Z,101383.22
2022-11-05T12:53:25.590Z,101485.53
2022-11-05T12:55:55.598Z,101494.06
2022-11-05T12:58:30.165Z,101484.00
2022-11-05T13:01:05.148Z,101473.38
2022-11-05T13:03:43.572Z,101466.47
2022-11-05T13:06:15.379Z,101460.00
2022-11-05T13:08:49.689Z,101443.81
2022-11-05T13:11:23.747Z,101452.91
2022-11-05T13:14:02.649Z,101351.19
2022-11-05T13:16:38.946Z,101451.59
2022-11-05T13:19:17.501Z,101429.16
2022-11-05T13:21:51.249Z,101441.00
2022-11-05T13:24:26.298Z,101440.69
2022-11-05T13:27:02.696Z,101439.69
2022-11-05T13:29:36.895Z,101445.84
2022-11-05T13:32:29.203Z,101447.22
2022-11-05T13:34:59.580Z,101451.97
2022-11-05T13:37:53.599Z,101443.91
2022-11-05T13:40:39.726Z,101454.81
2022-11-05T13:43:23.559Z,101448.16
2022-11-05T13:46:17.701Z,101452.59
2022-11-05T13:49:17.393Z,101456.13
2022-11-05T13:51:53.537Z,101453.31
2022-11-05T13:54:52.599Z,101455.47
2022-11-05T13:57:52.755Z,101446.41
2022-11-05T14:00:27.057Z,101449.53
2022-11-05T14:02:58.574Z,101446.41
2022-11-05T14:05:34.313Z,101450.41
2022-11-05T14:08:10.349Z,101441.13
2022-11-05T14:10:42.926Z,101448.63
2022-11-05T14:13:24.085Z,101444.66
2022-11-05T14:16:01.700Z,101418.31
2022-11-05T14:18:47.656Z,101447.78
2022-11-05T14:21:52.117Z,101440.56
2022-11-05T14:24:43.193Z,101449.28
2022-11-05T14:27:34.469Z,101451.03
2022-11-05T14:30:43.602Z,101445.72
2022-11-05T14:33:30.325Z,101441.44
2022-11-05T14:36:31.742Z,101448.81
2022-11-05T14:39:20.597Z,101449.72
2022-11-05T14:41:58.780Z,101453.31
2022-11-05T14:44:29.033Z,101446.25
2022-11-05T14:47:01.465Z,101444.88
2022-11-05T14:49:33.811Z,101439.69
2022-11-05T14:52:08.100Z,101439.44
2022-11-05T14:54:44.100Z,101441.78
2022-11-05T14:57:15.839Z,101437.00
2022-11-05T15:00:03.015Z,101435.38
2022-11-05T15:02:39.415Z,101438.69
2022-11-05T15:05:40.169Z,101434.06
2022-11-05T15:08:36.554Z,101426.16
2022-11-05T15:11:16.081Z,101425.63
2022-11-05T15:13:58.803Z,101425.13
2022-11-05T15:16:32.599Z,101427.09
2022-11-05T15:19:38.764Z,101426.47
2022-11-05T15:22:24.387Z,101422.41
2022-11-05T15:24:53.795Z,101417.06
2022-11-05T15:27:40.328Z,101421.75
2022-11-05T15:30:18.160Z,101420.94
2022-11-05T15:32:51.214Z,101390.63
2022-11-05T15:35:24.777Z,101403.47
2022-11-05T15:38:01.839Z,101415.69
2022-11-05T15:40:34.018Z,101423.00
2022-11-05T15:43:12.872Z,101413.19
2022-11-05T15:45:42.675Z,101403.91
2022-11-05T15:48:16.629Z,101416.94
2022-11-05T15:50:46.476Z,101417.84
2022-11-05T15:53:44.108Z,101409.31
2022-11-05T15:56:13.830Z,101374.97
2022-11-05T15:58:49.667Z,101408.47
2022-11-05T16:01:25.157Z,101379.16
2022-11-05T16:03:56.114Z,101400.16
2022-11-05T16:06:43.153Z,101388.97
2022-11-05T16:09:22.808Z,101400.06
2022-11-05T16:12:10.323Z,101392.03
2022-11-05T16:14:41.001Z,101384.53
2022-11-05T16:17:22.808Z,101394.53
2022-11-05T16:19:53.006Z,101389.72
2022-11-05T16:22:21.892Z,101392.94
2022-11-05T16:24:52.773Z,101396.47
2022-11-05T16:27:24.917Z,101389.50
2022-11-05T16:29:57.389Z,101385.88
2022-11-05T16:32:31.048Z,101387.91
2022-11-05T16:35:04.006Z,101377.19
2022-11-05T16:37:39.763Z,101383.78
2022-11-05T16:40:15.231Z,101389.06
2022-11-05T16:42:48.589Z,101382.59
2022-11-05T16:45:21.335Z,101371.53
2022-11-05T16:47:50.411Z,101377.13
2022-11-05T16:51:00.086Z,101377.66
2022-11-05T16:53:31.098Z,101373.50
2022-11-05T16:56:00.951Z,101375.16
2022-11-05T16:58:31.102Z,101385.44
2022-11-05T17:01:05.148Z,101372.59
2022-11-05T17:03:56.821Z,101376.97
2022-11-05T17:09:24.482Z,101368.66
2022-11-05T17:12:24.586Z,101377.25
2022-11-05T17:14:58.446Z,101380.16
2022-11-05T17:17:32.883Z,101389.91
2022-11-05T17:20:02.835Z,101389.09
2022-11-05T17:22:34.818Z,101388.28
2022-11-05T17:25:05.013Z,101389.91
2022-11-05T17:27:34.859Z,101388.59
2022-11-05T17:30:03.569Z,101387.31
2022-11-05T17:32:37.342Z,101401.34
2022-11-05T17:35:09.191Z,101402.47
2022-11-05T17:37:38.946Z,101414.53
2022-11-05T17:40:13.650Z,101439.28
2022-11-05T17:42:43.953Z,101415.00
2022-11-05T17:45:14.205Z,101411.91
2022-11-05T17:47:45.669Z,101417.75
2022-11-05T17:50:16.756Z,101401.47
2022-11-05T17:52:47.543Z,101422.00
2022-11-05T17:55:19.588Z,101416.59
2022-11-05T17:57:50.936Z,101404.41
2022-11-05T18:00:24.255Z,101415.53
2022-11-05T18:02:56.128Z,101398.16
2022-11-05T18:05:28.098Z,101395.28
2022-11-05T18:08:00.310Z,101381.81
2022-11-05T18:10:29.871Z,101390.88
2022-11-05T18:12:59.736Z,101390.78
2022-11-05T18:15:29.849Z,101401.97
2022-11-05T18:18:01.125Z,101402.66
2022-11-05T18:20:31.149Z,101395.28
2022-11-05T18:23:00.795Z,101390.28
2022-11-05T18:25:32.908Z,101380.03
2022-11-05T18:28:02.324Z,101372.06
2022-11-05T18:30:31.752Z,101373.13
2022-11-05T18:33:07.743Z,101372.66
2022-11-05T18:35:44.209Z,101372.66
2022-11-05T18:38:13.945Z,101377.88
2022-11-05T18:40:42.854Z,101370.75
2022-11-05T18:43:11.988Z,101370.22
2022-11-05T18:45:41.901Z,101357.66
2022-11-05T18:48:12.838Z,101349.56
2022-11-05T18:50:42.798Z,101373.84
2022-11-05T18:53:12.717Z,101332.94
2022-11-05T18:55:44.911Z,101351.03
2022-11-05T18:58:15.772Z,101322.22
2022-11-05T19:00:44.588Z,101311.13
2022-11-05T19:03:14.919Z,101310.06
2022-11-05T19:05:43.606Z,101324.03
2022-11-05T19:08:13.131Z,101306.13
2022-11-05T19:10:42.803Z,101314.41
2022-11-05T19:13:11.941Z,101312.66
2022-11-05T19:15:43.900Z,101318.34
2022-11-05T19:18:16.171Z,101310.66
2022-11-05T19:20:44.937Z,101317.06
2022-11-05T19:23:14.940Z,101322.41
2022-11-05T19:25:43.769Z,101314.78
2022-11-05T19:28:12.609Z,101311.69
2022-11-05T19:30:42.044Z,101312.94
2022-11-05T19:33:11.151Z,101310.53
2022-11-05T19:35:44.198Z,101198.69
2022-11-05T19:38:13.076Z,101311.38
2022-11-05T19:40:43.050Z,101306.75
2022-11-05T19:43:12.476Z,101296.16
2022-11-05T19:45:45.306Z,101297.47
2022-11-05T19:48:19.357Z,101303.16
2022-11-05T19:50:50.159Z,101308.00
2022-11-05T19:53:23.514Z,101308.06
2022-11-05T19:55:52.600Z,101300.38
2022-11-05T19:58:21.451Z,101303.81
2022-11-05T20:00:50.243Z,101286.69
2022-11-05T20:03:18.882Z,101300.63
2022-11-05T20:05:53.034Z,101290.34
2022-11-05T20:08:22.114Z,101273.38
2022-11-05T20:10:54.974Z,101283.25
2022-11-05T20:13:23.956Z,101253.91
2022-11-05T20:15:53.751Z,101292.63
2022-11-05T20:18:26.788Z,101285.22
2022-11-05T20:21:06.905Z,101136.22
2022-11-05T20:23:36.137Z,101275.69
2022-11-05T20:26:07.526Z,101278.97
2022-11-05T20:28:41.171Z,101276.69
2022-11-05T20:31:11.673Z,101270.22
2022-11-05T20:33:42.275Z,101273.03
2022-11-05T20:36:16.194Z,101268.16
2022-11-05T20:38:49.316Z,101275.69
2022-11-05T20:41:20.777Z,101260.91
2022-11-05T20:43:51.422Z,101285.06
2022-11-05T20:46:22.435Z,101291.59
2022-11-05T20:48:51.907Z,101299.66
2022-11-05T20:51:25.060Z,101302.69
2022-11-05T20:53:56.189Z,101266.00
2022-11-05T20:56:27.868Z,101299.28
2022-11-05T20:58:59.562Z,101299.59
2022-11-05T21:01:34.223Z,101300.25
2022-11-05T21:04:04.946Z,101303.59
2022-11-05T21:06:35.937Z,101299.41
2022-11-05T21:09:05.940Z,101295.22
2022-11-05T21:11:51.725Z,101292.38
2022-11-05T21:14:21.014Z,101280.88
2022-11-05T21:16:53.122Z,101277.50
2022-11-05T21:19:24.130Z,101285.66
2022-11-05T21:21:55.140Z,101270.00
2022-11-05T21:24:24.902Z,101282.59
2022-11-05T21:26:57.222Z,101292.44
2022-11-05T21:29:28.995Z,101279.00
2022-11-05T21:32:00.134Z,101280.41
2022-11-05T21:34:33.961Z,101281.69
2022-11-05T21:37:05.649Z,101283.31
2022-11-05T21:39:36.629Z,101281.44
2022-11-05T21:42:05.983Z,101290.25
2022-11-05T21:44:34.719Z,101281.00
2022-11-05T21:47:06.836Z,101284.47
2022-11-05T21:58:42.400Z,101264.41
2022-11-05T22:01:13.020Z,101261.72
2022-11-05T22:03:44.110Z,101265.75
2022-11-05T22:06:13.938Z,101264.31
2022-11-05T22:08:43.629Z,101263.50
2022-11-05T22:11:12.922Z,101235.50
2022-11-05T22:13:43.709Z,101250.50
2022-11-05T22:16:12.866Z,101260.78
2022-11-05T22:18:42.175Z,101265.81
2022-11-05T22:21:16.848Z,101240.22
2022-11-05T22:23:48.281Z,101255.88
2022-11-05T22:26:17.817Z,101253.06
2022-11-05T22:28:50.659Z,101254.22
2022-11-05T22:31:19.816Z,101261.28
2022-11-05T22:33:49.128Z,101244.16
2022-11-05T22:36:18.044Z,101244.63
2022-11-05T22:38:47.149Z,101244.94
2022-11-05T22:41:18.655Z,101223.28
2022-11-05T22:43:47.432Z,101241.91
2022-11-05T22:46:20.733Z,101241.53
2022-11-05T22:48:49.621Z,101245.84
2022-11-05T22:51:20.852Z,101242.16
2022-11-05T22:53:49.724Z,101231.88
2022-11-05T22:56:20.981Z,101232.97
2022-11-05T22:58:50.794Z,101218.28
2022-11-05T23:01:22.688Z,101229.50
2022-11-05T23:03:55.262Z,101227.34
2022-11-05T23:06:44.407Z,101223.28
2022-11-05T23:09:36.111Z,101216.25
2022-11-05T23:12:19.224Z,101227.38
2022-11-05T23:14:48.329Z,101219.66
2022-11-05T23:17:37.081Z,101205.19
2022-11-05T23:20:24.517Z,101204.84
2022-11-05T23:23:11.061Z,101204.97
2022-11-05T23:25:39.939Z,101186.34
2022-11-05T23:28:11.540Z,101191.19
2022-11-05T23:30:59.450Z,101186.25
2022-11-05T23:33:30.399Z,101160.19
2022-11-05T23:36:16.512Z,101188.66
2022-11-05T23:38:45.319Z,101176.66
2022-11-05T23:41:31.379Z,101188.06
2022-11-05T23:44:18.186Z,101177.13
2022-11-05T23:47:04.124Z,101180.53
2022-11-05T23:49:34.384Z,101188.19
2022-11-05T23:52:05.930Z,101174.75
2022-11-05T23:54:34.646Z,101183.22
2022-11-05T23:57:04.101Z,101182.38
2022-11-05T23:59:33.054Z,101184.59
